sensor_id;sensor_type;location;lat;lon;timestamp;pressure;altitude;pressure_sealevel;temperature;humidity
15487;BME280;7845;53.698;10.078;2022-11-14T00:00:28;101774.72;;;10.27;100.00
15487;BME280;7845;53.698;10.078;2022-11-14T00:02:54;101766.00;;;10.26;100.00
15487;BME280;7845;53.698;10.078;2022-11-14T00:05:20;101768.56;;;10.25;100.00
15487;BME280;7845;53.698;10.078;2022-11-14T00:07:45;101773.75;;;10.19;100.00
15487;BME280;7845;53.698;10.078;2022-11-14T00:10:15;101772.91;;;10.23;100.00
15487;BME280;7845;53.698;10.078;2022-11-14T00:12:44;101771.22;;;10.28;100.00
15487;BME280;7845;53.698;10.078;2022-11-14T00:15:13;101757.31;;;10.27;100.00
15487;BME280;7845;53.698;10.078;2022-11-14T00:17:39;101761.59;;;10.21;100.00
15487;BME280;7845;53.698;10.078;2022-11-14T00:20:09;101753.81;;;10.24;100.00
15487;BME280;7845;53.698;10.078;2022-11-14T00:22:35;101759.03;;;10.25;100.00
15487;BME280;7845;53.698;10.078;2022-11-14T00:25:01;101746.84;;;10.21;100.00
15487;BME280;7845;53.698;10.078;2022-11-14T00:27:26;101760.34;;;9.87;100.00
15487;BME280;7845;53.698;10.078;2022-11-14T00:29:52;101757.00;;;10.01;100.00
15487;BME280;7845;53.698;10.078;2022-11-14T00:32:18;101755.34;;;10.08;100.00
15487;BME280;7845;53.698;10.078;2022-11-14T00:34:48;101752.84;;;10.14;100.00
15487;BME280;7845;53.698;10.078;2022-11-14T00:37:13;101751.06;;;10.13;100.00
15487;BME280;7845;53.698;10.078;2022-11-14T00:39:39;101745.00;;;10.14;100.00
15487;BME280;7845;53.698;10.078;2022-11-14T00:42:05;101745.03;;;10.19;100.00
15487;BME280;7845;53.698;10.078;2022-11-14T00:44:31;101747.69;;;10.20;100.00
15487;BME280;7845;53.698;10.078;2022-11-14T00:46:56;101737.28;;;10.23;100.00
15487;BME280;7845;53.698;10.078;2022-11-14T00:49:22;101740.69;;;10.18;100.00
15487;BME280;7845;53.698;10.078;2022-11-14T00:51:47;101734.50;;;10.13;100.00
15487;BME280;7845;53.698;10.078;2022-11-14T00:54:12;101727.47;;;10.04;100.00
15487;BME280;7845;53.698;10.078;2022-11-14T00:56:38;101718.84;;;10.08;100.00
15487;BME280;7845;53.698;10.078;2022-11-14T00:59:09;101716.06;;;9.91;100.00
15487;BME280;7845;53.698;10.078;2022-11-14T01:01:37;101723.00;;;9.91;100.00
15487;BME280;7845;53.698;10.078;2022-11-14T01:04:03;101719.59;;;9.98;100.00
15487;BME280;7845;53.698;10.078;2022-11-14T01:06:28;101714.47;;;10.06;100.00
15487;BME280;7845;53.698;10.078;2022-11-14T01:08:54;101711.03;;;10.11;100.00
15487;BME280;7845;53.698;10.078;2022-11-14T01:11:24;101707.56;;;10.12;100.00
15487;BME280;7845;53.698;10.078;2022-11-14T01:13:49;101704.84;;;10.01;100.00
15487;BME280;7845;53.698;10.078;2022-11-14T01:16:15;101701.31;;;9.95;100.00
15487;BME280;7845;53.698;10.078;2022-11-14T01:18:41;101699.50;;;9.88;100.00
15487;BME280;7845;53.698;10.078;2022-11-14T01:21:09;101695.97;;;9.81;100.00
15487;BME280;7845;53.698;10.078;2022-11-14T01:23:38;101691.69;;;9.89;100.00
15487;BME280;7845;53.698;10.078;2022-11-14T01:26:10;101694.34;;;9.92;100.00
15487;BME280;7845;53.698;10.078;2022-11-14T01:28:38;101701.13;;;9.75;100.00
15487;BME280;7845;53.698;10.078;2022-11-14T01:31:13;101691.69;;;9.88;100.00
15487;BME280;7845;53.698;10.078;2022-11-14T01:33:39;101695.19;;;9.90;100.00
15487;BME280;7845;53.698;10.078;2022-11-14T01:36:06;101681.28;;;9.91;100.00
15487;BME280;7845;53.698;10.078;2022-11-14T01:38:32;101687.41;;;9.96;100.00
15487;BME280;7845;53.698;10.078;2022-11-14T01:40:59;101689.94;;;9.85;100.00
15487;BME280;7845;53.698;10.078;2022-11-14T01:43:28;101679.53;;;9.88;100.00
15487;BME280;7845;53.698;10.078;2022-11-14T01:45:55;101677.75;;;9.86;100.00
15487;BME280;7845;53.698;10.078;2022-11-14T01:48:32;101679.59;;;9.94;100.00
15487;BME280;7845;53.698;10.078;2022-11-14T01:53:35;101669.13;;;9.93;100.00
15487;BME280;7845;53.698;10.078;2022-11-14T01:56:03;101674.38;;;9.97;100.00
15487;BME280;7845;53.698;10.078;2022-11-14T01:58:30;101660.41;;;9.89;100.00
15487;BME280;7845;53.698;10.078;2022-11-14T02:00:58;101655.09;;;9.80;100.00
15487;BME280;7845;53.698;10.078;2022-11-14T02:03:25;101655.13;;;9.82;100.00
15487;BME280;7845;53.698;10.078;2022-11-14T02:05:51;101648.22;;;9.87;100.00
15487;BME280;7845;53.698;10.078;2022-11-14T02:08:16;101641.25;;;9.84;100.00
15487;BME280;7845;53.698;10.078;2022-11-14T02:10:42;101645.63;;;9.90;100.00
15487;BME280;7845;53.698;10.078;2022-11-14T02:13:07;101636.97;;;9.91;100.00
15487;BME280;7845;53.698;10.078;2022-11-14T02:15:33;101635.19;;;9.87;100.00
15487;BME280;7845;53.698;10.078;2022-11-14T02:18:00;101628.25;;;9.87;100.00
15487;BME280;7845;53.698;10.078;2022-11-14T02:20:28;101624.75;;;9.85;100.00
15487;BME280;7845;53.698;10.078;2022-11-14T02:22:56;101623.00;;;9.86;100.00
15487;BME280;7845;53.698;10.078;2022-11-14T02:25:22;101618.63;;;9.82;100.00
15487;BME280;7845;53.698;10.078;2022-11-14T02:27:48;101612.63;;;9.90;100.00
15487;BME280;7845;53.698;10.078;2022-11-14T02:30:19;101610.84;;;9.85;100.00
15487;BME280;7845;53.698;10.078;2022-11-14T02:32:45;101610.00;;;9.92;100.00
15487;BME280;7845;53.698;10.078;2022-11-14T02:35:11;101604.78;;;9.92;100.00
15487;BME280;7845;53.698;10.078;2022-11-14T02:37:37;101608.19;;;9.83;100.00
15487;BME280;7845;53.698;10.078;2022-11-14T02:40:03;101603.88;;;9.84;100.00
15487;BME280;7845;53.698;10.078;2022-11-14T02:42:28;101599.53;;;9.86;100.00
15487;BME280;7845;53.698;10.078;2022-11-14T02:44:54;101609.00;;;9.73;100.00
15487;BME280;7845;53.698;10.078;2022-11-14T02:47:19;101594.22;;;9.75;100.00
15487;BME280;7845;53.698;10.078;2022-11-14T02:49:44;101595.78;;;9.57;100.00
15487;BME280;7845;53.698;10.078;2022-11-14T02:52:10;101590.69;;;9.69;100.00
15487;BME280;7845;53.698;10.078;2022-11-14T02:54:36;101586.38;;;9.74;100.00
15487;BME280;7845;53.698;10.078;2022-11-14T02:57:01;101579.47;;;9.76;100.00
15487;BME280;7845;53.698;10.078;2022-11-14T02:59:26;101583.88;;;9.84;100.00
15487;BME280;7845;53.698;10.078;2022-11-14T03:01:52;101574.19;;;9.71;100.00
15487;BME280;7845;53.698;10.078;2022-11-14T03:04:17;101575.94;;;9.74;100.00
15487;BME280;7845;53.698;10.078;2022-11-14T03:06:42;101576.88;;;9.76;100.00
15487;BME280;7845;53.698;10.078;2022-11-14T03:09:08;101565.56;;;9.78;100.00
15487;BME280;7845;53.698;10.078;2022-11-14T03:11:34;101563.00;;;9.83;100.00
15487;BME280;7845;53.698;10.078;2022-11-14T03:13:59;101553.41;;;9.77;100.00
15487;BME280;7845;53.698;10.078;2022-11-14T03:16:24;101562.13;;;9.79;100.00
15487;BME280;7845;53.698;10.078;2022-11-14T03:18:50;101561.25;;;9.79;100.00
15487;BME280;7845;53.698;10.078;2022-11-14T03:21:19;101557.78;;;9.81;100.00
15487;BME280;7845;53.698;10.078;2022-11-14T03:23:44;101550.81;;;9.80;100.00
15487;BME280;7845;53.698;10.078;2022-11-14T03:26:11;101547.31;;;9.75;100.00
15487;BME280;7845;53.698;10.078;2022-11-14T03:28:37;101549.09;;;9.81;100.00
15487;BME280;7845;53.698;10.078;2022-11-14T03:31:04;101539.44;;;9.74;100.00
15487;BME280;7845;53.698;10.078;2022-11-14T03:33:30;101542.06;;;9.74;100.00
15487;BME280;7845;53.698;10.078;2022-11-14T03:35:55;101544.72;;;9.78;100.00
15487;BME280;7845;53.698;10.078;2022-11-14T03:38:21;101536.03;;;9.78;100.00
15487;BME280;7845;53.698;10.078;2022-11-14T03:40:48;101536.06;;;9.79;100.00
15487;BME280;7845;53.698;10.078;2022-11-14T03:43:13;101531.72;;;9.81;100.00
15487;BME280;7845;53.698;10.078;2022-11-14T03:45:39;101529.97;;;9.79;100.00
15487;BME280;7845;53.698;10.078;2022-11-14T03:48:05;101520.34;;;9.75;100.00
15487;BME280;7845;53.698;10.078;2022-11-14T03:50:30;101521.22;;;9.77;100.00
15487;BME280;7845;53.698;10.078;2022-11-14T03:52:56;101523.03;;;9.79;100.00
15487;BME280;7845;53.698;10.078;2022-11-14T03:55:22;101514.28;;;9.73;100.00
15487;BME280;7845;53.698;10.078;2022-11-14T03:57:49;101522.97;;;9.75;100.00
15487;BME280;7845;53.698;10.078;2022-11-14T04:00:15;101512.50;;;9.72;100.00
15487;BME280;7845;53.698;10.078;2022-11-14T04:02:41;101519.53;;;9.79;100.00
15487;BME280;7845;53.698;10.078;2022-11-14T04:05:06;101520.38;;;9.78;100.00
15487;BME280;7845;53.698;10.078;2022-11-14T04:07:32;101511.72;;;9.83;100.00
15487;BME280;7845;53.698;10.078;2022-11-14T04:09:57;101515.22;;;9.84;100.00
15487;BME280;7845;53.698;10.078;2022-11-14T04:12:23;101517.00;;;9.89;100.00
15487;BME280;7845;53.698;10.078;2022-11-14T04:14:48;101510.03;;;9.90;100.00
15487;BME280;7845;53.698;10.078;2022-11-14T04:17:13;101510.09;;;9.94;100.00
15487;BME280;7845;53.698;10.078;2022-11-14T04:19:38;101514.41;;;9.91;100.00
15487;BME280;7845;53.698;10.078;2022-11-14T04:22:05;101504.81;;;9.90;100.00
15487;BME280;7845;53.698;10.078;2022-11-14T04:24:30;101511.72;;;9.82;100.00
15487;BME280;7845;53.698;10.078;2022-11-14T04:26:57;101502.13;;;9.73;100.00
15487;BME280;7845;53.698;10.078;2022-11-14T04:29:22;101503.88;;;9.80;100.00
15487;BME280;7845;53.698;10.078;2022-11-14T04:31:49;101499.56;;;9.79;100.00
15487;BME280;7845;53.698;10.078;2022-11-14T04:34:14;101490.84;;;9.79;100.00
15487;BME280;7845;53.698;10.078;2022-11-14T04:36:39;101492.59;;;9.81;100.00
15487;BME280;7845;53.698;10.078;2022-11-14T04:39:05;101498.66;;;9.80;100.00
15487;BME280;7845;53.698;10.078;2022-11-14T04:41:31;101490.78;;;9.70;100.00
15487;BME280;7845;53.698;10.078;2022-11-14T04:43:56;101490.78;;;9.71;100.00
15487;BME280;7845;53.698;10.078;2022-11-14T04:46:23;101486.47;;;9.75;100.00
15487;BME280;7845;53.698;10.078;2022-11-14T04:48:49;101485.59;;;9.74;100.00
15487;BME280;7845;53.698;10.078;2022-11-14T04:51:14;101484.75;;;9.75;100.00
15487;BME280;7845;53.698;10.078;2022-11-14T04:53:40;101482.09;;;9.74;100.00
15487;BME280;7845;53.698;10.078;2022-11-14T04:56:05;101481.13;;;9.55;100.00
15487;BME280;7845;53.698;10.078;2022-11-14T04:58:31;101475.00;;;9.52;100.00
15487;BME280;7845;53.698;10.078;2022-11-14T05:00:56;101476.81;;;9.65;100.00
15487;BME280;7845;53.698;10.078;2022-11-14T05:03:22;101468.22;;;9.70;100.00
15487;BME280;7845;53.698;10.078;2022-11-14T05:05:48;101469.88;;;9.61;100.00
15487;BME280;7845;53.698;10.078;2022-11-14T05:08:14;101463.84;;;9.69;100.00
15487;BME280;7845;53.698;10.078;2022-11-14T05:10:43;101464.72;;;9.71;100.00
15487;BME280;7845;53.698;10.078;2022-11-14T05:13:09;101462.03;;;9.58;100.00
15487;BME280;7845;53.698;10.078;2022-11-14T05:15:34;101466.41;;;9.65;100.00
15487;BME280;7845;53.698;10.078;2022-11-14T05:18:00;101460.25;;;9.52;100.00
15487;BME280;7845;53.698;10.078;2022-11-14T05:20:25;101454.97;;;9.43;100.00
15487;BME280;7845;53.698;10.078;2022-11-14T05:22:54;101454.16;;;9.52;100.00
15487;BME280;7845;53.698;10.078;2022-11-14T05:25:21;101448.97;;;9.55;100.00
15487;BME280;7845;53.698;10.078;2022-11-14T05:27:47;101435.09;;;9.56;100.00
15487;BME280;7845;53.698;10.078;2022-11-14T05:30:12;101432.50;;;9.59;100.00
15487;BME280;7845;53.698;10.078;2022-11-14T05:32:39;101436.84;;;9.63;100.00
15487;BME280;7845;53.698;10.078;2022-11-14T05:35:05;101440.31;;;9.62;100.00
15487;BME280;7845;53.698;10.078;2022-11-14T05:37:33;101442.09;;;9.66;100.00
15487;BME280;7845;53.698;10.078;2022-11-14T05:39:58;101438.66;;;9.70;100.00
15487;BME280;7845;53.698;10.078;2022-11-14T05:42:24;101436.91;;;9.67;100.00
15487;BME280;7845;53.698;10.078;2022-11-14T05:44:49;101435.09;;;9.60;100.00
15487;BME280;7845;53.698;10.078;2022-11-14T05:47:15;101442.09;;;9.66;100.00
15487;BME280;7845;53.698;10.078;2022-11-14T05:49:42;101449.06;;;9.68;100.00
15487;BME280;7845;53.698;10.078;2022-11-14T05:52:07;101441.25;;;9.70;100.00
15487;BME280;7845;53.698;10.078;2022-11-14T05:54:33;101450.81;;;9.71;100.00
15487;BME280;7845;53.698;10.078;2022-11-14T05:56:58;101446.41;;;9.62;100.00
15487;BME280;7845;53.698;10.078;2022-11-14T05:59:23;101440.31;;;9.56;100.00
15487;BME280;7845;53.698;10.078;2022-11-14T06:01:49;101435.97;;;9.61;100.00
15487;BME280;7845;53.698;10.078;2022-11-14T06:04:14;101443.81;;;9.64;100.00
15487;BME280;7845;53.698;10.078;2022-11-14T06:06:39;101442.09;;;9.66;100.00
15487;BME280;7845;53.698;10.078;2022-11-14T06:09:05;101444.69;;;9.66;100.00
15487;BME280;7845;53.698;10.078;2022-11-14T06:11:31;101442.94;;;9.63;100.00
15487;BME280;7845;53.698;10.078;2022-11-14T06:13:57;101442.97;;;9.71;100.00
15487;BME280;7845;53.698;10.078;2022-11-14T06:16:23;101442.94;;;9.63;100.00
15487;BME280;7845;53.698;10.078;2022-11-14T06:18:51;101437.72;;;9.63;100.00
15487;BME280;7845;53.698;10.078;2022-11-14T06:21:19;101432.53;;;9.66;100.00
15487;BME280;7845;53.698;10.078;2022-11-14T06:23:45;101441.22;;;9.68;100.00
15487;BME280;7845;53.698;10.078;2022-11-14T06:26:23;101445.56;;;9.68;100.00
15487;BME280;7845;53.698;10.078;2022-11-14T06:28:51;101444.69;;;9.63;100.00
15487;BME280;7845;53.698;10.078;2022-11-14T06:31:18;101445.56;;;9.68;100.00
15487;BME280;7845;53.698;10.078;2022-11-14T06:33:44;101444.69;;;9.63;100.00
15487;BME280;7845;53.698;10.078;2022-11-14T06:36:11;101452.56;;;9.72;100.00
15487;BME280;7845;53.698;10.078;2022-11-14T06:38:37;101448.22;;;9.72;100.00
15487;BME280;7845;53.698;10.078;2022-11-14T06:41:15;101448.19;;;9.66;100.00
15487;BME280;7845;53.698;10.078;2022-11-14T06:43:46;101449.09;;;9.73;100.00
15487;BME280;7845;53.698;10.078;2022-11-14T06:46:18;101440.41;;;9.74;100.00
15487;BME280;7845;53.698;10.078;2022-11-14T06:48:45;101437.81;;;9.77;100.00
15487;BME280;7845;53.698;10.078;2022-11-14T06:51:12;101434.34;;;9.76;100.00
15487;BME280;7845;53.698;10.078;2022-11-14T06:53:39;101438.69;;;9.73;100.00
15487;BME280;7845;53.698;10.078;2022-11-14T06:56:07;101447.31;;;9.66;100.00
15487;BME280;7845;53.698;10.078;2022-11-14T06:58:35;101444.72;;;9.69;100.00
15487;BME280;7845;53.698;10.078;2022-11-14T07:01:26;101446.44;;;9.65;100.00
15487;BME280;7845;53.698;10.078;2022-11-14T07:03:51;101455.03;;;9.54;100.00
15487;BME280;7845;53.698;10.078;2022-11-14T07:06:19;101454.22;;;9.58;100.00
15487;BME280;7845;53.698;10.078;2022-11-14T07:08:44;101451.56;;;9.53;100.00
15487;BME280;7845;53.698;10.078;2022-11-14T07:11:15;101442.91;;;9.57;100.00
15487;BME280;7845;53.698;10.078;2022-11-14T07:13:49;101451.63;;;9.62;100.00
15487;BME280;7845;53.698;10.078;2022-11-14T07:16:15;101445.56;;;9.65;100.00
15487;BME280;7845;53.698;10.078;2022-11-14T07:18:40;101450.78;;;9.68;100.00
15487;BME280;7845;53.698;10.078;2022-11-14T07:21:06;101453.41;;;9.71;100.00
15487;BME280;7845;53.698;10.078;2022-11-14T07:23:32;101456.84;;;9.65;100.00
15487;BME280;7845;53.698;10.078;2022-11-14T07:26:05;101453.41;;;9.71;100.00
15487;BME280;7845;53.698;10.078;2022-11-14T07:28:33;101455.16;;;9.69;100.00
15487;BME280;7845;53.698;10.078;2022-11-14T07:31:02;101447.34;;;9.72;100.00
15487;BME280;7845;53.698;10.078;2022-11-14T07:33:28;101453.34;;;9.62;100.00
15487;BME280;7845;53.698;10.078;2022-11-14T07:35:54;101455.94;;;9.62;100.00
15487;BME280;7845;53.698;10.078;2022-11-14T07:38:19;101449.88;;;9.60;100.00
15487;BME280;7845;53.698;10.078;2022-11-14T07:41:27;101451.47;;;9.44;100.00
15487;BME280;7845;53.698;10.078;2022-11-14T07:43:45;101461.81;;;9.32;100.00
15487;BME280;7845;53.698;10.078;2022-11-14T07:46:15;101454.09;;;9.42;100.00
15487;BME280;7845;53.698;10.078;2022-11-14T07:48:41;101461.84;;;9.38;100.00
15487;BME280;7845;53.698;10.078;2022-11-14T07:51:14;101460.91;;;9.25;100.00
15487;BME280;7845;53.698;10.078;2022-11-14T07:53:40;101462.72;;;9.34;100.00
15487;BME280;7845;53.698;10.078;2022-11-14T07:56:07;101460.03;;;9.29;100.00
15487;BME280;7845;53.698;10.078;2022-11-14T07:58:37;101465.31;;;9.35;100.00
15487;BME280;7845;53.698;10.078;2022-11-14T08:01:06;101461.06;;;9.45;100.00
15487;BME280;7845;53.698;10.078;2022-11-14T08:03:32;101448.06;;;9.50;100.00
15487;BME280;7845;53.698;10.078;2022-11-14T08:06:06;101443.69;;;9.45;100.00
15487;BME280;7845;53.698;10.078;2022-11-14T08:08:32;101444.59;;;9.49;100.00
15487;BME280;7845;53.698;10.078;2022-11-14T08:10:59;101438.47;;;9.47;100.00
15487;BME280;7845;53.698;10.078;2022-11-14T08:13:25;101440.31;;;9.59;100.00
15487;BME280;7845;53.698;10.078;2022-11-14T08:15:50;101436.88;;;9.66;100.00
15487;BME280;7845;53.698;10.078;2022-11-14T08:18:16;101443.88;;;9.70;100.00
15487;BME280;7845;53.698;10.078;2022-11-14T08:20:42;101444.75;;;9.72;100.00
15487;BME280;7845;53.698;10.078;2022-11-14T08:23:08;101435.16;;;9.68;100.00
15487;BME280;7845;53.698;10.078;2022-11-14T08:25:35;101434.34;;;9.75;100.00
15487;BME280;7845;53.698;10.078;2022-11-14T08:28:01;101436.88;;;9.64;100.00
15487;BME280;7845;53.698;10.078;2022-11-14T08:30:27;101438.59;;;9.61;100.00
15487;BME280;7845;53.698;10.078;2022-11-14T08:32:52;101432.53;;;9.66;100.00
15487;BME280;7845;53.698;10.078;2022-11-14T08:35:18;101428.97;;;9.54;100.00
15487;BME280;7845;53.698;10.078;2022-11-14T08:37:43;101422.97;;;9.61;100.00
15487;BME280;7845;53.698;10.078;2022-11-14T08:40:09;101422.09;;;9.68;100.00
15487;BME280;7845;53.698;10.078;2022-11-14T08:42:35;101424.63;;;9.51;100.00
15487;BME280;7845;53.698;10.078;2022-11-14T08:45:00;101428.06;;;9.45;100.00
15487;BME280;7845;53.698;10.078;2022-11-14T08:47:25;101428.09;;;9.49;100.00
15487;BME280;7845;53.698;10.078;2022-11-14T08:49:51;101427.28;;;9.57;100.00
15487;BME280;7845;53.698;10.078;2022-11-14T08:52:16;101424.69;;;9.60;100.00
15487;BME280;7845;53.698;10.078;2022-11-14T08:54:42;101428.97;;;9.49;100.00
15487;BME280;7845;53.698;10.078;2022-11-14T08:57:07;101435.03;;;9.50;100.00
15487;BME280;7845;53.698;10.078;2022-11-14T08:59:32;101426.38;;;9.57;100.00
15487;BME280;7845;53.698;10.078;2022-11-14T09:01:58;101418.56;;;9.55;100.00
15487;BME280;7845;53.698;10.078;2022-11-14T09:04:24;101417.78;;;9.68;100.00
15487;BME280;7845;53.698;10.078;2022-11-14T09:06:49;101419.56;;;9.75;100.00
15487;BME280;7845;53.698;10.078;2022-11-14T09:09:15;101413.56;;;9.85;100.00
15487;BME280;7845;53.698;10.078;2022-11-14T09:11:41;101417.88;;;9.82;100.00
15487;BME280;7845;53.698;10.078;2022-11-14T09:14:06;101411.75;;;9.75;100.00
15487;BME280;7845;53.698;10.078;2022-11-14T09:16:31;101415.22;;;9.74;100.00
15487;BME280;7845;53.698;10.078;2022-11-14T09:18:58;101411.75;;;9.80;100.00
15487;BME280;7845;53.698;10.078;2022-11-14T09:21:23;101409.16;;;9.83;100.00
15487;BME280;7845;53.698;10.078;2022-11-14T09:23:49;101409.22;;;9.90;100.00
15487;BME280;7845;53.698;10.078;2022-11-14T09:26:16;101408.31;;;9.84;100.00
15487;BME280;7845;53.698;10.078;2022-11-14T09:28:43;101418.78;;;9.93;100.00
15487;BME280;7845;53.698;10.078;2022-11-14T09:31:10;101415.25;;;9.83;100.00
15487;BME280;7845;53.698;10.078;2022-11-14T09:33:36;101417.03;;;9.87;100.00
15487;BME280;7845;53.698;10.078;2022-11-14T09:36:04;101414.44;;;9.92;100.00
15487;BME280;7845;53.698;10.078;2022-11-14T09:38:30;101410.00;;;9.73;100.00
15487;BME280;7845;53.698;10.078;2022-11-14T09:46:18;101413.53;;;9.87;100.00
15487;BME280;7845;53.698;10.078;2022-11-14T09:48:45;101414.41;;;9.89;100.00
15487;BME280;7845;53.698;10.078;2022-11-14T09:51:32;101410.97;;;9.91;100.00
15487;BME280;7845;53.698;10.078;2022-11-14T09:54:19;101404.84;;;9.85;100.00
15487;BME280;7845;53.698;10.078;2022-11-14T09:56:45;101405.72;;;9.84;100.00
15487;BME280;7845;53.698;10.078;2022-11-14T09:59:11;101390.13;;;9.93;100.00
15487;BME280;7845;53.698;10.078;2022-11-14T10:02:13;101387.53;;;10.03;100.00
15487;BME280;7845;53.698;10.078;2022-11-14T10:10:42;101383.22;;;10.09;100.00
15487;BME280;7845;53.698;10.078;2022-11-14T10:16:14;101388.50;;;10.15;100.00
15487;BME280;7845;53.698;10.078;2022-11-14T10:18:53;101391.91;;;10.06;100.00
15487;BME280;7845;53.698;10.078;2022-11-14T10:24:29;101384.19;;;10.18;100.00
15487;BME280;7845;53.698;10.078;2022-11-14T10:27:01;101372.03;;;10.29;100.00
15487;BME280;7845;53.698;10.078;2022-11-14T10:29:42;101371.16;;;10.36;100.00
15487;BME280;7845;53.698;10.078;2022-11-14T10:35:52;101360.75;;;10.41;100.00
15487;BME280;7845;53.698;10.078;2022-11-14T10:40:58;101348.59;;;10.53;100.00
15487;BME280;7845;53.698;10.078;2022-11-14T10:46:00;101342.53;;;10.62;100.00
15487;BME280;7845;53.698;10.078;2022-11-14T10:48:32;101340.78;;;10.69;100.00
15487;BME280;7845;53.698;10.078;2022-11-14T10:51:02;101332.09;;;10.74;100.00
15487;BME280;7845;53.698;10.078;2022-11-14T10:53:57;101337.31;;;10.85;100.00
15487;BME280;7845;53.698;10.078;2022-11-14T10:56:24;101326.84;;;10.85;100.00
15487;BME280;7845;53.698;10.078;2022-11-14T10:58:49;101325.13;;;10.90;100.00
15487;BME280;7845;53.698;10.078;2022-11-14T11:04:24;101328.59;;;11.01;100.00
15487;BME280;7845;53.698;10.078;2022-11-14T11:06:55;101325.97;;;11.05;100.00
15487;BME280;7845;53.698;10.078;2022-11-14T11:09:26;101317.25;;;11.11;100.00
15487;BME280;7845;53.698;10.078;2022-11-14T11:12:19;101317.28;;;11.13;100.00
15487;BME280;7845;53.698;10.078;2022-11-14T11:14:46;101316.38;;;11.24;100.00
15487;BME280;7845;53.698;10.078;2022-11-14T11:17:15;101306.78;;;11.23;100.00
15487;BME280;7845;53.698;10.078;2022-11-14T11:19:41;101312.94;;;11.10;100.00
15487;BME280;7845;53.698;10.078;2022-11-14T11:22:35;101292.91;;;11.17;100.00
15487;BME280;7845;53.698;10.078;2022-11-14T11:25:01;101289.44;;;11.04;100.00
15487;BME280;7845;53.698;10.078;2022-11-14T11:27:28;101281.59;;;11.07;100.00
15487;BME280;7845;53.698;10.078;2022-11-14T11:30:21;101285.06;;;11.06;100.00
15487;BME280;7845;53.698;10.078;2022-11-14T11:32:49;101269.41;;;11.04;100.00
15487;BME280;7845;53.698;10.078;2022-11-14T11:35:16;101267.69;;;10.84;100.00
15487;BME280;7845;53.698;10.078;2022-11-14T11:37:53;101264.19;;;10.86;100.00
15487;BME280;7845;53.698;10.078;2022-11-14T11:40:23;101265.94;;;10.75;100.00
15487;BME280;7845;53.698;10.078;2022-11-14T11:43:04;101257.25;;;10.72;100.00
15487;BME280;7845;53.698;10.078;2022-11-14T11:45:33;101256.38;;;10.61;100.00
15487;BME280;7845;53.698;10.078;2022-11-14T11:48:46;101247.69;;;10.55;100.00
15487;BME280;7845;53.698;10.078;2022-11-14T11:51:18;101238.09;;;10.47;100.00
15487;BME280;7845;53.698;10.078;2022-11-14T11:54:02;101224.19;;;10.52;100.00
15487;BME280;7845;53.698;10.078;2022-11-14T11:56:31;101218.97;;;10.54;100.00
15487;BME280;7845;53.698;10.078;2022-11-14T11:59:30;101207.66;;;10.29;100.00
15487;BME280;7845;53.698;10.078;2022-11-14T12:02:01;101203.31;;;10.37;100.00
15487;BME280;7845;53.698;10.078;2022-11-14T12:04:29;101204.19;;;10.30;100.00
15487;BME280;7845;53.698;10.078;2022-11-14T12:07:07;101213.72;;;10.22;100.00
15487;BME280;7845;53.698;10.078;2022-11-14T12:09:38;101205.06;;;10.26;100.00
15487;BME280;7845;53.698;10.078;2022-11-14T12:12:10;101200.72;;;10.30;100.00
15487;BME280;7845;53.698;10.078;2022-11-14T12:15:03;101184.16;;;10.31;100.00
15487;BME280;7845;53.698;10.078;2022-11-14T12:23:36;101222.44;;;10.54;100.00
15487;BME280;7845;53.698;10.078;2022-11-14T12:31:11;101229.41;;;10.65;100.00
15487;BME280;7845;53.698;10.078;2022-11-14T12:33:48;101243.31;;;10.68;100.00
15487;BME280;7845;53.698;10.078;2022-11-14T12:36:17;101244.19;;;10.76;100.00
15487;BME280;7845;53.698;10.078;2022-11-14T12:38:46;101238.97;;;10.76;100.00
15487;BME280;7845;53.698;10.078;2022-11-14T12:41:25;101239.81;;;10.80;100.00
15487;BME280;7845;53.698;10.078;2022-11-14T12:43:51;101240.69;;;10.83;100.00
15487;BME280;7845;53.698;10.078;2022-11-14T12:46:17;101234.59;;;10.83;100.00
15487;BME280;7845;53.698;10.078;2022-11-14T12:48:46;101226.78;;;10.80;100.00
15487;BME280;7845;53.698;10.078;2022-11-14T12:54:41;101216.31;;;10.81;100.00
15487;BME280;7845;53.698;10.078;2022-11-14T12:57:11;101218.94;;;10.72;100.00
15487;BME280;7845;53.698;10.078;2022-11-14T13:00:03;101218.94;;;10.68;100.00
15487;BME280;7845;53.698;10.078;2022-11-14T13:02:45;101211.13;;;10.65;100.00
15487;BME280;7845;53.698;10.078;2022-11-14T13:05:21;101196.31;;;10.67;100.00
15487;BME280;7845;53.698;10.078;2022-11-14T13:10:33;101201.53;;;10.79;100.00
15487;BME280;7845;53.698;10.078;2022-11-14T13:13:09;101207.63;;;10.78;100.00
15487;BME280;7845;53.698;10.078;2022-11-14T13:15:56;101205.88;;;10.74;100.00
15487;BME280;7845;53.698;10.078;2022-11-14T13:18:52;101202.41;;;10.70;100.00
15487;BME280;7845;53.698;10.078;2022-11-14T13:21:37;101198.06;;;10.74;100.00
15487;BME280;7845;53.698;10.078;2022-11-14T13:24:15;101195.47;;;10.69;100.00
15487;BME280;7845;53.698;10.078;2022-11-14T13:26:46;101193.72;;;10.64;100.00
15487;BME280;7845;53.698;10.078;2022-11-14T13:32:08;101172.00;;;10.60;100.00
15487;BME280;7845;53.698;10.078;2022-11-14T13:34:49;101175.47;;;10.62;100.00
15487;BME280;7845;53.698;10.078;2022-11-14T13:37:39;101170.25;;;10.62;100.00
15487;BME280;7845;53.698;10.078;2022-11-14T13:43:28;101170.22;;;10.64;100.00
15487;BME280;7845;53.698;10.078;2022-11-14T13:51:15;101181.53;;;10.64;100.00
15487;BME280;7845;53.698;10.078;2022-11-14T13:53:41;101174.59;;;10.63;100.00
15487;BME280;7845;53.698;10.078;2022-11-14T13:59:14;101186.78;;;10.60;100.00